Flight Track Log - Related Links

Times and Time Zones

All times are in EDT time to prevent confusion due to time zone crossing. See the SKW2669 flight status page for this flight to view local times or setup timezone preferences in your user account.

Time Position Orientation Groundspeed Altitude Reporting Facility
EDT Latitude Longitude Course Direction KTS MPH feet Rate Location/Type
Tue 06:06:57 PM 40.8153 -112.0019 189° South 194 223 4,900  Level Salt Lake Center
Tue 06:07:42 PM 40.8394 -112.0394 310° West 219 252 6,200 1,981 Climbing Salt Lake Center
Tue 06:08:43 PM 40.8261 -112.1331 259° West 256 295 8,400 2,098 Climbing Salt Lake Center
Tue 06:09:45 PM 40.8039 -112.2294 253° West 275 316 10,500 1,984 Climbing Salt Lake Center
Tue 06:10:47 PM 40.7153 -112.2836 205° Southwest 302 348 12,500 2,000 Climbing Salt Lake Center
Tue 06:11:48 PM 40.6308 -112.3008 189° South 306 352 14,600 1,805 Climbing Salt Lake Center
Tue 06:12:00 PM 40.3971 -112.3373 189° South  Level FlightAware Approximate
Tue 06:12:50 PM 40.5436 -112.3153 187° South 315 362 16,200  Level Salt Lake Center
Tue 06:13:52 PM 40.4528 -112.3356 190° South 331 381 17,700 1,512 Climbing Salt Lake Center
Tue 06:14:53 PM 40.3583 -112.3547 189° South 344 396 19,300 1,463 Climbing Salt Lake Center
Tue 06:15:55 PM 40.2728 -112.4044 204° Southwest 339 390 20,700 1,113 Climbing Salt Lake Center
Tue 06:16:57 PM 40.1864 -112.4661 209° Southwest 355 409 21,600 1,073 Climbing Salt Lake Center
Tue 06:17:58 PM 40.0783 -112.5414 208° Southwest 368 423 22,900 1,073 Climbing Salt Lake Center
Tue 06:19:00 PM 39.9864 -112.6047 208° Southwest 375 432 23,800 976 Climbing Salt Lake Center
Tue 06:20:01 PM 39.8950 -112.6706 209° Southwest 374 430 24,900 976 Climbing Salt Lake Center
Tue 06:21:03 PM 39.8008 -112.7347 208° Southwest 379 436 25,800 919 Climbing Salt Lake Center
Tue 06:22:05 PM 39.6972 -112.8042 207° Southwest 384 442 26,800 878 Climbing Salt Lake Center
Tue 06:23:06 PM 39.5956 -112.8486 199° South 385 443 27,600 732 Climbing Salt Lake Center
Tue 06:24:08 PM 39.4883 -112.8803 193° South 393 452 28,300 726 Climbing Salt Lake Center
Tue 06:25:10 PM 39.3822 -112.9167 195° South 396 456 29,100 732 Climbing Salt Lake Center
Tue 06:26:11 PM 39.2764 -112.9506 194° South 393 452 29,800 683 Climbing Salt Lake Center
Tue 06:27:13 PM 39.1692 -112.9872 195° South 398 458 30,500 780 Climbing Salt Lake Center
Tue 06:28:14 PM 39.0644 -113.0203 194° South 392 451 31,400 732 Climbing Salt Lake Center
Tue 06:29:16 PM 38.9378 -113.0603 194° South 390 449 32,000 290 Climbing Salt Lake Center
Tue 06:30:18 PM 38.8314 -113.0942 194° South 393 452 32,000  Level Salt Lake Center
Tue 06:31:19 PM 38.7236 -113.1283 194° South 398 458 32,000  Level Salt Lake Center
Tue 06:32:21 PM 38.6172 -113.1617 194° South 396 456 32,000  Level Salt Lake Center
Tue 06:33:23 PM 38.5100 -113.1958 194° South 397 457 32,000  Level Salt Lake Center
Tue 06:34:25 PM 38.4008 -113.2300 194° South 402 463 32,000  Level Salt Lake Center
Tue 06:35:26 PM 38.2892 -113.2658 194° South 412 474 32,000  Level Salt Lake Center
Tue 06:36:28 PM 38.1544 -113.3081 194° South 416 479 32,000  Level Salt Lake Center
Tue 06:37:29 PM 38.0422 -113.3428 194° South 418 481 32,000  Level Salt Lake Center
Tue 06:38:31 PM 37.9283 -113.3775 194° South 421 484 32,000  Level Salt Lake Center
Tue 06:39:33 PM 37.8256 -113.4431 207° Southwest 417 480 32,000  Level Salt Lake Center
Tue 06:40:34 PM 37.7275 -113.5222 213° Southwest 419 482 32,000  Level Salt Lake Center
Tue 06:41:36 PM 37.6300 -113.5994 212° Southwest 418 481 32,000  Level Salt Lake Center
Tue 06:42:38 PM 37.5122 -113.6914 212° Southwest 417 480 32,000  Level Salt Lake Center
Tue 06:43:39 PM 37.4128 -113.7694 212° Southwest 420 483 32,000  Level Salt Lake Center
Tue 06:44:41 PM 37.3153 -113.8453 212° Southwest 419 482 32,000  Level Salt Lake Center
Tue 06:45:42 PM 37.2169 -113.9214 212° Southwest 417 480 32,000  Level Salt Lake Center
Tue 06:46:44 PM 37.1219 -113.9997 213° Southwest 414 476 32,000  Level Salt Lake Center
Tue 06:47:33 PM 37.0431 -114.0606 212° Southwest 417 480 32,000  Level Los Angeles Center
Tue 06:48:35 PM 36.9447 -114.1364 212° Southwest 415 478 32,000  Level Los Angeles Center
Tue 06:49:37 PM 36.8258 -114.2278 212° Southwest 417 480 32,000  Level Los Angeles Center
Tue 06:50:39 PM 36.7283 -114.3044 212° Southwest 416 479 32,000  Level Los Angeles Center
Tue 06:51:41 PM 36.6292 -114.3794 211° Southwest 415 478 32,000  Level Los Angeles Center
Tue 06:52:43 PM 36.5303 -114.4558 212° Southwest 417 480 32,000  Level Los Angeles Center
Tue 06:53:45 PM 36.4319 -114.5308 212° Southwest 415 478 32,000  Level Los Angeles Center
Tue 06:54:46 PM 36.3331 -114.6064 212° Southwest 416 479 32,000  Level Los Angeles Center
Tue 06:55:48 PM 36.2342 -114.6817 212° Southwest 416 479 32,000  Level Los Angeles Center
Tue 06:56:50 PM 36.1344 -114.7575 212° Southwest 417 480 32,000  Level Los Angeles Center
Tue 06:57:52 PM 36.0147 -114.8481 211° Southwest 418 481 32,000  Level Los Angeles Center
Tue 06:58:54 PM 35.9314 -114.9483 224° Southwest 415 478 32,000  Level Los Angeles Center
Tue 06:59:57 PM 35.8536 -115.0553 228° Southwest 417 480 32,000  Level Los Angeles Center
Tue 07:00:58 PM 35.7894 -115.1406 227° Southwest 420 483 32,000  Level Los Angeles Center
Tue 07:02:01 PM 35.6975 -115.2692 229° Southwest 416 479 32,000  Level Los Angeles Center
Tue 07:03:03 PM 35.6186 -115.3753 228° Southwest 417 480 32,000  Level Los Angeles Center
Tue 07:04:04 PM 35.5400 -115.4794 227° Southwest 415 478 32,000  Level Los Angeles Center
Tue 07:05:06 PM 35.4497 -115.6014 228° Southwest 415 478 32,000  Level Los Angeles Center
Tue 07:06:08 PM 35.3683 -115.7011 225° Southwest 414 476 32,000  Level Los Angeles Center
Tue 07:07:11 PM 35.2825 -115.7981 223° Southwest 417 480 32,000  Level Los Angeles Center
Tue 07:08:12 PM 35.1975 -115.8933 223° Southwest 415 478 32,000  Level Los Angeles Center
Tue 07:09:14 PM 35.1131 -115.9897 223° Southwest 416 479 32,000  Level Los Angeles Center
Tue 07:10:16 PM 35.0281 -116.0861 223° Southwest 418 481 32,000  Level Los Angeles Center
Tue 07:11:18 PM 34.9253 -116.2006 222° Southwest 416 479 32,000  Level Los Angeles Center
Tue 07:12:20 PM 34.8394 -116.2969 223° Southwest 418 481 32,000  Level Los Angeles Center
Tue 07:13:22 PM 34.7528 -116.3928 222° Southwest 420 483 32,000  Level Los Angeles Center
Tue 07:14:23 PM 34.6661 -116.4894 223° Southwest 422 486 32,000 -585 Level Los Angeles Center
Tue 07:15:25 PM 34.5800 -116.5864 223° Southwest 421 484 30,800 -1,694 Descending Los Angeles Center
Tue 07:16:27 PM 34.4931 -116.6819 222° Southwest 422 486 28,500 -2,177 Descending Los Angeles Center
Tue 07:17:29 PM 34.4083 -116.7750 222° Southwest 413 475 26,300 -2,323 Descending Los Angeles Center
Tue 07:18:31 PM 34.3119 -116.8819 223° Southwest 393 452 23,700 -2,338 Descending Los Angeles Center
Tue 07:19:45 PM 34.2186 -116.9828 222° Southwest 377 434 21,000 -2,074 Descending Los Angeles Center
Tue 07:20:47 PM 34.1431 -117.0664 222° Southwest 371 427 19,000 -1,500 Descending Los Angeles Center
Tue 07:21:45 PM 34.0833 -117.1667 234° Southwest 356 410 18,000 -1,271 Descending Southern California TRACON
Tue 07:22:45 PM 34.0500 -117.2667 248° West 310 357 16,500 -1,500 Descending Southern California TRACON
Tue 07:23:45 PM 34.0333 -117.3500 256° West 284 327 15,000 -1,700 Descending Southern California TRACON
Tue 07:24:45 PM 34.0333 -117.4667 270° West 283 326 13,100 -1,500 Descending Southern California TRACON
Tue 07:25:45 PM 34.0167 -117.5500 256° West 288 331 12,000 -1,050 Descending Southern California TRACON
Tue 07:26:45 PM 34.0167 -117.6500 270° West 281 323 11,000 -1,000 Descending Southern California TRACON
Tue 07:27:45 PM 34.0000 -117.7333 256° West 274 315 10,000 -950 Descending Southern California TRACON
Tue 07:28:45 PM 34.0000 -117.8167 270° West 264 304 9,100 -992 Descending Southern California TRACON
Tue 07:29:46 PM 33.9833 -117.9167 259° West 260 299 8,000 -1,039 Descending Southern California TRACON
Tue 07:30:52 PM 33.9833 -118.0000 270° West 230 265 6,900 -1,143 Descending Southern California TRACON
Tue 07:31:52 PM 33.9667 -118.0833 256° West 232 267 5,600 -1,350 Descending Southern California TRACON
Tue 07:32:52 PM 33.9667 -118.1500 270° West 229 264 4,200 -1,231 Descending Southern California TRACON
Tue 07:33:10 PM 33.9608 -118.1728 253° West 229 264 4,000 -900 Descending Los Angeles Center
Tue 07:34:12 PM 33.9525 -118.2378 261° West 208 239 3,000 -1,016 Descending Los Angeles Center
Tue 07:35:14 PM 33.9467 -118.2939 263° West 186 214 1,900 -871 Descending Los Angeles Center
Tue 07:36:16 PM 33.9422 -118.3358 263° West 149 171 1,200 -774 Descending Los Angeles Center
Tue 07:37:18 PM 33.9392 -118.3769 265° West 133 153 300 -871 Descending Los Angeles Center
Tue 07:39:00 PM 33.9333 -118.4000 259° West  Level FlightAware Approximate
Tue 07:46:00 PM 33.9425 -118.4081 259° West  Level Estimated

Login

Don't have an account? Register now (free) for customized features, flight alerts, and more!